createdAt,value
2023-01-09T00:00:53.249Z,99485.06
2023-01-09T00:03:19.603Z,99487.66
2023-01-09T00:05:46.198Z,99478.75
2023-01-09T00:08:12.663Z,99476.28
2023-01-09T00:10:39.070Z,99478.16
2023-01-09T00:13:05.509Z,99471.97
2023-01-09T00:15:31.976Z,99461.25
2023-01-09T00:17:58.344Z,99462.09
2023-01-09T00:20:24.849Z,99461.44
2023-01-09T00:22:51.279Z,99466.47
2023-01-09T00:25:17.721Z,99459.47
2023-01-09T00:27:44.156Z,99446.16
2023-01-09T00:30:11.402Z,99442.84
2023-01-09T00:32:37.755Z,99436.97
2023-01-09T00:35:04.573Z,99442.25
2023-01-09T00:37:31.004Z,99444.16
2023-01-09T00:39:57.351Z,99445.06
2023-01-09T00:42:28.294Z,99450.59
2023-01-09T00:44:59.463Z,99450.09
2023-01-09T00:47:40.405Z,99441.56
2023-01-09T00:50:30.576Z,99449.88
2023-01-09T00:53:01.465Z,99440.91
2023-01-09T00:55:28.097Z,99431.66
2023-01-09T00:57:55.689Z,99434.72
2023-01-09T01:00:22.465Z,99430.63
2023-01-09T01:02:48.888Z,99435.88
2023-01-09T01:05:34.075Z,99432.53
2023-01-09T01:08:00.508Z,99430.00
2023-01-09T01:10:27.760Z,99429.16
2023-01-09T01:12:54.191Z,99433.56
2023-01-09T01:15:20.960Z,99429.84
2023-01-09T01:17:47.934Z,99427.94
2023-01-09T01:20:18.715Z,99415.47
2023-01-09T01:22:45.141Z,99417.03
2023-01-09T01:25:14.237Z,99423.16
2023-01-09T01:27:41.271Z,99420.97
2023-01-09T01:30:09.635Z,99412.25
2023-01-09T01:32:36.296Z,99413.16
2023-01-09T01:35:02.864Z,99415.53
2023-01-09T01:37:29.327Z,99412.50
2023-01-09T01:39:55.818Z,99422.13
2023-01-09T01:42:22.561Z,99413.59
2023-01-09T01:45:07.717Z,99420.44
2023-01-09T01:47:40.209Z,99415.22
2023-01-09T01:50:22.743Z,99399.38
2023-01-09T01:52:56.318Z,99399.47
2023-01-09T01:55:23.324Z,99399.44
2023-01-09T01:57:54.210Z,99401.13
2023-01-09T02:00:27.141Z,99396.94
2023-01-09T02:02:53.681Z,99391.66
2023-01-09T02:05:20.245Z,99385.44
2023-01-09T02:07:46.796Z,99387.63
2023-01-09T02:10:13.228Z,99377.09
2023-01-09T02:12:39.581Z,99378.34
2023-01-09T02:15:10.660Z,99381.56
2023-01-09T02:17:56.043Z,99382.41
2023-01-09T02:20:32.557Z,99380.50
2023-01-09T02:23:42.955Z,99365.47
2023-01-09T02:26:35.281Z,99354.59
2023-01-09T02:29:10.346Z,99353.66
2023-01-09T02:31:43.694Z,99356.19
2023-01-09T02:34:43.823Z,99352.66
2023-01-09T02:37:39.839Z,99346.44
2023-01-09T02:40:20.831Z,99337.63
2023-01-09T02:42:48.386Z,99342.69
2023-01-09T02:45:14.820Z,99346.22
2023-01-09T02:47:46.378Z,99338.38
2023-01-09T02:50:23.450Z,99340.22
2023-01-09T02:53:11.281Z,99344.38
2023-01-09T02:55:58.827Z,99346.72
2023-01-09T02:59:07.229Z,99342.34
2023-01-09T03:02:05.830Z,99340.22
2023-01-09T03:04:53.682Z,99338.94
2023-01-09T03:07:33.010Z,99333.84
2023-01-09T03:10:08.585Z,99340.28
2023-01-09T03:12:36.729Z,99334.94
2023-01-09T03:15:07.081Z,99338.38
2023-01-09T03:17:43.935Z,99335.59
2023-01-09T03:20:13.516Z,99328.19
2023-01-09T03:22:45.828Z,99332.47
2023-01-09T03:25:13.088Z,99327.97
2023-01-09T03:27:39.811Z,99327.72
2023-01-09T03:30:06.803Z,99328.66
2023-01-09T03:32:33.433Z,99327.13
2023-01-09T03:35:01.762Z,99334.63
2023-01-09T03:37:28.105Z,99327.81
2023-01-09T03:39:54.603Z,99329.53
2023-01-09T03:42:20.938Z,99333.50
2023-01-09T03:44:47.491Z,99328.13
2023-01-09T03:47:13.947Z,99329.81
2023-01-09T03:49:40.543Z,99334.63
2023-01-09T03:52:07.078Z,99327.63
2023-01-09T03:54:33.424Z,99329.47
2023-01-09T03:56:59.849Z,99318.97
2023-01-09T03:59:26.411Z,99324.13
2023-01-09T04:01:52.935Z,99329.19
2023-01-09T04:04:19.389Z,99324.84
2023-01-09T04:06:45.755Z,99322.09
2023-01-09T04:09:12.281Z,99322.28
2023-01-09T04:11:38.655Z,99315.53
2023-01-09T04:14:05.068Z,99316.63
2023-01-09T04:16:31.489Z,99313.31
2023-01-09T04:18:57.971Z,99314.03
2023-01-09T04:21:24.346Z,99310.56
2023-01-09T04:23:50.809Z,99307.78
2023-01-09T04:26:17.280Z,99306.97
2023-01-09T04:28:43.628Z,99303.50
2023-01-09T04:31:10.102Z,99297.91
2023-01-09T04:33:36.752Z,99300.91
2023-01-09T04:36:03.515Z,99290.97
2023-01-09T04:38:29.970Z,99294.94
2023-01-09T04:40:56.340Z,99298.13
2023-01-09T04:43:22.836Z,99302.34
2023-01-09T04:45:49.220Z,99296.50
2023-01-09T04:48:15.977Z,99294.88
2023-01-09T04:50:42.343Z,99298.03
2023-01-09T04:53:08.932Z,99294.56
2023-01-09T04:55:35.409Z,99302.06
2023-01-09T04:58:01.774Z,99304.38
2023-01-09T05:00:28.276Z,99303.75
2023-01-09T05:02:54.964Z,99301.56
2023-01-09T05:05:21.389Z,99304.78
2023-01-09T05:07:47.751Z,99298.72
2023-01-09T05:10:14.237Z,99301.25
2023-01-09T05:12:40.736Z,99295.78
2023-01-09T05:15:08.322Z,99298.31
2023-01-09T05:17:34.976Z,99300.91
2023-01-09T05:20:01.512Z,99298.22
2023-01-09T05:22:28.107Z,99298.16
2023-01-09T05:24:54.670Z,99302.78
2023-01-09T05:27:23.417Z,99308.22
2023-01-09T05:29:49.758Z,99301.75
2023-01-09T05:32:16.152Z,99303.00
2023-01-09T05:34:42.546Z,99304.06
2023-01-09T05:37:08.908Z,99302.16
2023-01-09T05:39:35.415Z,99303.94
2023-01-09T05:42:01.927Z,99305.06
2023-01-09T05:44:28.355Z,99305.94
2023-01-09T05:46:54.792Z,99299.97
2023-01-09T05:49:21.138Z,99305.69
2023-01-09T05:51:47.719Z,99303.16
2023-01-09T05:54:14.059Z,99304.00
2023-01-09T05:56:40.574Z,99305.56
2023-01-09T05:59:07.029Z,99298.66
2023-01-09T06:01:33.459Z,99307.06
2023-01-09T06:04:03.116Z,99307.91
2023-01-09T06:06:29.670Z,99301.25
2023-01-09T06:08:56.110Z,99302.25
2023-01-09T06:11:22.628Z,99298.53
2023-01-09T06:13:48.986Z,99301.66
2023-01-09T06:16:15.862Z,99305.19
2023-01-09T06:18:42.224Z,99307.19
2023-01-09T06:21:08.594Z,99310.56
2023-01-09T06:23:35.135Z,99314.28
2023-01-09T06:26:01.610Z,99327.78
2023-01-09T06:28:28.100Z,99321.25
2023-01-09T06:30:54.520Z,99328.03
2023-01-09T06:33:20.960Z,99326.06
2023-01-09T06:35:47.464Z,99328.41
2023-01-09T06:38:13.918Z,99337.91
2023-01-09T06:40:40.358Z,99341.84
2023-01-09T06:43:06.783Z,99341.91
2023-01-09T06:45:33.537Z,99340.09
2023-01-09T06:47:59.923Z,99349.41
2023-01-09T06:50:26.275Z,99334.34
2023-01-09T06:52:52.928Z,99336.56
2023-01-09T06:55:19.398Z,99345.72
2023-01-09T06:57:45.769Z,99349.13
2023-01-09T07:00:12.647Z,99347.09
2023-01-09T07:02:39.078Z,99350.56
2023-01-09T07:05:07.885Z,99348.66
2023-01-09T07:07:34.583Z,99347.50
2023-01-09T07:10:00.968Z,99348.06
2023-01-09T07:12:28.294Z,99357.44
2023-01-09T07:14:57.428Z,99361.75
2023-01-09T07:17:24.075Z,99367.16
2023-01-09T07:19:50.454Z,99374.34
2023-01-09T07:22:17.512Z,99370.19
2023-01-09T07:24:44.495Z,99375.59
2023-01-09T07:27:11.712Z,99380.94
2023-01-09T07:29:38.138Z,99383.88
2023-01-09T07:32:05.111Z,99395.41
2023-01-09T07:34:31.527Z,99396.03
2023-01-09T07:36:57.974Z,99399.94
2023-01-09T07:39:24.352Z,99405.41
2023-01-09T07:41:50.855Z,99409.84
2023-01-09T07:44:17.224Z,99413.66
2023-01-09T07:46:43.696Z,99418.25
2023-01-09T07:49:10.264Z,99423.69
2023-01-09T07:51:39.132Z,99423.84
2023-01-09T07:54:05.629Z,99436.13
2023-01-09T07:56:31.969Z,99439.53
2023-01-09T07:58:58.429Z,99440.91
2023-01-09T08:01:25.036Z,99442.06
2023-01-09T08:03:51.430Z,99457.06
2023-01-09T08:06:17.805Z,99450.41
2023-01-09T08:08:44.373Z,99458.28
2023-01-09T08:11:10.938Z,99460.81
2023-01-09T08:13:37.313Z,99478.31
2023-01-09T08:16:03.994Z,99455.19
2023-01-09T08:18:30.520Z,99455.88
2023-01-09T08:20:56.899Z,99463.69
2023-01-09T08:23:23.333Z,99462.00
2023-01-09T08:25:49.895Z,99470.44
2023-01-09T08:28:17.090Z,99481.47
2023-01-09T08:30:43.597Z,99466.69
2023-01-09T08:33:10.081Z,99480.69
2023-01-09T08:35:37.097Z,99480.13
2023-01-09T08:38:03.944Z,99478.53
2023-01-09T08:40:30.499Z,99488.09
2023-01-09T08:43:15.538Z,99487.94
2023-01-09T08:46:00.311Z,99484.50
2023-01-09T08:48:27.025Z,99482.84
2023-01-09T08:50:54.229Z,99488.66
2023-01-09T08:53:20.810Z,99492.25
2023-01-09T08:55:47.247Z,99492.34
2023-01-09T08:58:13.729Z,99494.94
2023-01-09T09:00:40.239Z,99501.97
2023-01-09T09:03:06.636Z,99507.59
2023-01-09T09:05:33.088Z,99507.06
2023-01-09T09:07:59.946Z,99502.75
2023-01-09T09:10:29.458Z,99513.16
2023-01-09T09:12:57.793Z,99510.25
2023-01-09T09:15:26.252Z,99519.97
2023-01-09T09:17:58.503Z,99518.09
2023-01-09T09:20:28.045Z,99532.03
2023-01-09T09:22:54.992Z,99521.81
2023-01-09T09:25:21.876Z,99527.72
2023-01-09T09:27:49.025Z,99524.13
2023-01-09T09:30:17.615Z,99526.44
2023-01-09T09:32:44.451Z,99532.22
2023-01-09T09:35:11.884Z,99533.94
2023-01-09T09:37:38.963Z,99536.16
2023-01-09T09:40:17.985Z,99537.63
2023-01-09T09:43:30.433Z,99549.66
2023-01-09T09:46:08.464Z,99544.97
2023-01-09T09:48:45.054Z,99546.66
2023-01-09T09:51:25.762Z,99549.94
2023-01-09T09:54:03.962Z,99551.91
2023-01-09T09:56:35.280Z,99552.53
2023-01-09T09:59:07.255Z,99558.66
2023-01-09T10:01:40.170Z,99564.00
2023-01-09T10:04:12.238Z,99569.22
2023-01-09T10:06:48.382Z,99565.13
2023-01-09T10:09:20.560Z,99566.06
2023-01-09T10:11:55.889Z,99566.13
2023-01-09T10:14:24.687Z,99570.22
2023-01-09T10:17:19.009Z,99568.13
2023-01-09T10:20:26.054Z,99570.84
2023-01-09T10:23:27.510Z,99582.09
2023-01-09T10:26:01.096Z,99578.47
2023-01-09T10:29:05.081Z,99582.44
2023-01-09T10:31:50.374Z,99595.59
2023-01-09T10:34:39.116Z,99590.63
2023-01-09T10:37:14.114Z,99589.84
2023-01-09T10:39:57.741Z,99587.34
2023-01-09T10:42:33.422Z,99594.25
2023-01-09T10:45:07.929Z,99592.56
2023-01-09T10:47:37.193Z,99610.81
2023-01-09T10:50:28.084Z,99607.41
2023-01-09T10:52:56.174Z,99598.56
2023-01-09T10:55:44.586Z,99598.34
2023-01-09T10:58:18.826Z,99597.66
2023-01-09T11:00:47.539Z,99597.53
2023-01-09T11:03:16.475Z,99599.69
2023-01-09T11:05:44.413Z,99601.75
2023-01-09T11:08:14.107Z,99599.63
2023-01-09T11:10:55.606Z,99601.09
2023-01-09T11:13:26.809Z,99597.47
2023-01-09T11:16:05.737Z,99607.69
2023-01-09T11:19:02.921Z,99615.34
2023-01-09T11:21:41.723Z,99609.22
2023-01-09T11:24:23.937Z,99598.03
2023-01-09T11:27:12.689Z,99600.53
2023-01-09T11:29:40.201Z,99589.75
2023-01-09T11:32:20.480Z,99594.38
2023-01-09T11:34:47.152Z,99593.69
2023-01-09T11:37:23.439Z,99599.28
2023-01-09T11:39:51.218Z,99597.16
2023-01-09T11:42:44.432Z,99588.47
2023-01-09T11:45:25.011Z,99583.03
2023-01-09T11:47:51.442Z,99577.78
2023-01-09T11:50:22.654Z,99588.06
2023-01-09T11:53:16.488Z,99593.00
2023-01-09T11:55:44.473Z,99584.66
2023-01-09T11:58:16.615Z,99591.53
2023-01-09T12:00:58.208Z,99588.91
2023-01-09T12:03:50.190Z,99580.59
2023-01-09T12:06:26.256Z,99596.06
2023-01-09T12:09:03.073Z,99589.78
2023-01-09T12:11:53.460Z,99590.22
2023-01-09T12:14:32.932Z,99602.53
2023-01-09T12:17:20.097Z,99602.25
2023-01-09T12:20:04.575Z,99603.78
2023-01-09T12:22:49.278Z,99606.06
2023-01-09T12:25:29.508Z,99606.44
2023-01-09T12:28:14.554Z,99610.72
2023-01-09T12:31:10.537Z,99609.50
2023-01-09T12:33:57.385Z,99604.22
2023-01-09T12:37:05.409Z,99617.38
2023-01-09T12:39:31.870Z,99610.53
2023-01-09T12:42:11.626Z,99615.53
2023-01-09T12:44:53.079Z,99613.38
2023-01-09T12:47:55.429Z,99613.50
2023-01-09T12:50:57.401Z,99610.13
2023-01-09T12:53:27.243Z,99614.28
2023-01-09T12:56:14.874Z,99614.63
2023-01-09T12:58:44.699Z,99609.66
2023-01-09T13:01:18.248Z,99615.81
2023-01-09T13:04:13.987Z,99607.44
2023-01-09T13:06:45.632Z,99609.22
2023-01-09T13:09:47.487Z,99610.19
2023-01-09T13:12:18.169Z,99612.03
2023-01-09T13:14:51.410Z,99612.56
2023-01-09T13:17:23.742Z,99614.69
2023-01-09T13:19:50.286Z,99618.28
2023-01-09T13:22:18.072Z,99621.47
2023-01-09T13:25:06.283Z,99617.00
2023-01-09T13:27:39.270Z,99617.34
2023-01-09T13:30:29.240Z,99613.50
2023-01-09T13:33:13.952Z,99622.88
2023-01-09T13:35:55.844Z,99620.41
2023-01-09T13:38:24.910Z,99620.41
2023-01-09T13:41:30.066Z,99637.00
2023-01-09T13:44:19.218Z,99636.03
2023-01-09T13:46:48.561Z,99633.56
2023-01-09T13:49:40.974Z,99629.53
2023-01-09T13:52:36.780Z,99631.28
2023-01-09T13:55:24.277Z,99632.72
2023-01-09T13:58:06.007Z,99637.78
2023-01-09T14:00:35.834Z,99642.22
2023-01-09T14:03:08.208Z,99643.28
2023-01-09T14:05:34.614Z,99646.97
2023-01-09T14:08:03.799Z,99646.97
2023-01-09T14:10:51.964Z,99650.47
2023-01-09T14:13:24.306Z,99655.41
2023-01-09T14:15:52.394Z,99658.69
2023-01-09T14:18:23.514Z,99660.50
2023-01-09T14:20:57.771Z,99657.28
2023-01-09T14:23:49.829Z,99669.63
2023-01-09T14:26:23.560Z,99676.88
2023-01-09T14:28:50.585Z,99676.94
2023-01-09T14:31:31.976Z,99681.31
2023-01-09T14:34:37.172Z,99684.25
2023-01-09T14:37:04.517Z,99688.53
2023-01-09T14:39:32.636Z,99687.78
2023-01-09T14:42:07.777Z,99692.47
2023-01-09T14:44:48.487Z,99694.31
2023-01-09T14:47:21.510Z,99696.19
2023-01-09T14:49:59.569Z,99701.59
2023-01-09T14:52:35.184Z,99706.91
2023-01-09T14:55:04.239Z,99707.13
2023-01-09T14:57:34.065Z,99710.56
2023-01-09T15:00:13.462Z,99724.44
2023-01-09T15:02:41.321Z,99727.03
2023-01-09T15:05:11.296Z,99721.63
2023-01-09T15:07:44.504Z,99734.41
2023-01-09T15:10:21.285Z,99738.63
2023-01-09T15:12:50.275Z,99735.97
2023-01-09T15:15:18.343Z,99739.38
2023-01-09T15:18:06.597Z,99729.44
2023-01-09T15:20:34.269Z,99734.38
2023-01-09T15:23:04.076Z,99738.69
2023-01-09T15:25:40.630Z,99736.72
2023-01-09T15:28:25.086Z,99726.88
2023-01-09T15:31:01.538Z,99737.09
2023-01-09T15:33:28.356Z,99744.69
2023-01-09T15:36:00.255Z,99738.44
2023-01-09T15:38:28.419Z,99746.91
2023-01-09T15:41:06.655Z,99750.28
2023-01-09T15:43:34.823Z,99750.19
2023-01-09T15:46:01.526Z,99756.19
2023-01-09T15:48:33.942Z,99750.91
2023-01-09T15:51:18.267Z,99750.84
2023-01-09T15:53:47.032Z,99748.22
2023-01-09T15:56:26.230Z,99755.97
2023-01-09T15:58:54.537Z,99756.75
2023-01-09T16:01:27.628Z,99759.38
2023-01-09T16:04:04.949Z,99769.75
2023-01-09T16:06:34.885Z,99771.44
2023-01-09T16:09:01.949Z,99780.94
2023-01-09T16:11:30.954Z,99780.03
2023-01-09T16:14:09.956Z,99791.34
2023-01-09T16:16:38.479Z,99795.94
2023-01-09T16:19:05.000Z,99798.63
2023-01-09T16:21:41.576Z,99796.88
2023-01-09T16:24:13.898Z,99811.59
2023-01-09T16:26:40.490Z,99809.81
2023-01-09T16:29:27.317Z,99814.13
2023-01-09T16:32:05.453Z,99812.44
2023-01-09T16:34:36.809Z,99821.16
2023-01-09T16:37:05.633Z,99816.00
2023-01-09T16:39:32.238Z,99818.63
2023-01-09T16:42:17.134Z,99819.47
2023-01-09T16:44:43.575Z,99824.69
2023-01-09T16:47:11.995Z,99826.47
2023-01-09T16:49:38.650Z,99830.84
2023-01-09T16:52:15.201Z,99830.84
2023-01-09T16:54:43.620Z,99831.66
2023-01-09T16:57:15.648Z,99833.38
2023-01-09T16:59:42.200Z,99842.16
2023-01-09T17:02:18.404Z,99844.78
2023-01-09T17:04:44.928Z,99847.38
2023-01-09T17:07:15.684Z,99854.47
2023-01-09T17:09:43.145Z,99853.63
2023-01-09T17:12:17.673Z,99853.63
2023-01-09T17:14:44.165Z,99860.59
2023-01-09T17:17:12.329Z,99860.59
2023-01-09T17:19:38.772Z,99862.31
2023-01-09T17:22:05.398Z,99872.66
2023-01-09T17:24:50.871Z,99870.00
2023-01-09T17:27:41.071Z,99877.75
2023-01-09T17:30:18.396Z,99869.16
2023-01-09T17:32:45.676Z,99877.09
2023-01-09T17:35:13.328Z,99881.72
2023-01-09T17:37:39.825Z,99884.34
2023-01-09T17:40:19.167Z,99892.16
2023-01-09T17:42:45.664Z,99897.56
2023-01-09T17:45:12.163Z,99900.31
2023-01-09T17:47:38.808Z,99905.66
2023-01-09T17:50:05.911Z,99913.47
2023-01-09T17:52:33.076Z,99916.00
2023-01-09T17:55:05.138Z,99919.38
2023-01-09T17:57:32.722Z,99927.16
2023-01-09T17:59:59.155Z,99926.19
2023-01-09T18:02:25.613Z,99922.72
2023-01-09T18:04:52.070Z,99936.53
2023-01-09T18:07:18.527Z,99934.00
2023-01-09T18:09:45.146Z,99943.88
2023-01-09T18:12:11.615Z,99955.16
2023-01-09T18:14:38.869Z,99958.50
2023-01-09T18:17:08.441Z,99956.66
2023-01-09T18:19:34.902Z,99959.16
2023-01-09T18:22:01.304Z,99961.72
2023-01-09T18:24:27.694Z,99968.59
2023-01-09T18:26:54.369Z,99972.06
2023-01-09T18:29:21.369Z,99968.66
2023-01-09T18:31:48.087Z,99981.75
2023-01-09T18:34:14.632Z,99988.91
2023-01-09T18:36:41.263Z,99988.13
2023-01-09T18:39:08.698Z,99986.44
2023-01-09T18:41:35.085Z,99995.84
2023-01-09T18:44:02.210Z,99992.44
2023-01-09T18:46:32.193Z,100003.09
2023-01-09T18:49:01.429Z,100004.81
2023-01-09T18:51:28.660Z,100010.03
2023-01-09T18:53:56.090Z,100012.75
2023-01-09T18:56:24.678Z,100016.31
2023-01-09T18:58:55.992Z,100028.56
2023-01-09T19:01:22.669Z,100030.31
2023-01-09T19:03:49.578Z,100028.53
2023-01-09T19:06:16.002Z,100041.47
2023-01-09T19:08:42.409Z,100043.91
2023-01-09T19:11:08.769Z,100047.34
2023-01-09T19:13:36.823Z,100054.31
2023-01-09T19:16:04.727Z,100056.06
2023-01-09T19:18:36.553Z,100053.53
2023-01-09T19:21:10.761Z,100061.41
2023-01-09T19:23:37.308Z,100064.00
2023-01-09T19:26:06.081Z,100069.31
2023-01-09T19:28:32.520Z,100078.00
2023-01-09T19:30:58.968Z,100082.44
2023-01-09T19:33:25.504Z,100094.81
2023-01-09T19:35:52.926Z,100108.00
2023-01-09T19:38:23.324Z,100110.50
2023-01-09T19:40:50.226Z,100107.84
2023-01-09T19:43:25.602Z,100116.53
2023-01-09T19:45:53.884Z,100123.47
2023-01-09T19:48:21.615Z,100123.38
2023-01-09T19:50:48.367Z,100124.16
2023-01-09T19:53:15.188Z,100123.13
2023-01-09T19:55:41.670Z,100134.47
2023-01-09T19:58:08.182Z,100138.81
2023-01-09T20:00:35.213Z,100135.50
2023-01-09T20:03:02.137Z,100136.41
2023-01-09T20:05:28.510Z,100147.50
2023-01-09T20:07:55.339Z,100140.44
2023-01-09T20:10:21.707Z,100143.75
2023-01-09T20:12:48.214Z,100155.88
2023-01-09T20:15:14.886Z,100173.28
2023-01-09T20:17:42.107Z,100174.13
2023-01-09T20:20:09.569Z,100183.72
2023-01-09T20:22:35.982Z,100182.75
2023-01-09T20:25:02.762Z,100188.13
2023-01-09T20:27:29.180Z,100191.81
2023-01-09T20:29:55.565Z,100188.78
2023-01-09T20:32:22.073Z,100193.06
2023-01-09T20:34:48.732Z,100196.63
2023-01-09T20:37:15.124Z,100198.41
2023-01-09T20:39:41.490Z,100213.28
2023-01-09T20:42:08.496Z,100202.06
2023-01-09T20:44:34.942Z,100204.59
2023-01-09T20:47:01.325Z,100210.66
2023-01-09T20:49:28.588Z,100213.22
2023-01-09T20:51:55.042Z,100225.50
2023-01-09T20:54:21.792Z,100224.72
2023-01-09T20:56:48.187Z,100231.50
2023-01-09T20:59:17.304Z,100239.44
2023-01-09T21:01:43.883Z,100239.63
2023-01-09T21:04:10.313Z,100238.88
2023-01-09T21:06:37.516Z,100244.13
2023-01-09T21:09:04.875Z,100241.38
2023-01-09T21:11:33.497Z,100247.44
2023-01-09T21:14:00.098Z,100248.34
2023-01-09T21:16:27.162Z,100258.63
2023-01-09T21:18:54.746Z,100260.47
2023-01-09T21:21:27.259Z,100268.47
2023-01-09T21:23:56.542Z,100265.03
2023-01-09T21:26:27.274Z,100266.91
2023-01-09T21:28:55.845Z,100276.53
2023-01-09T21:31:25.552Z,100279.06
2023-01-09T21:33:54.354Z,100284.38
2023-01-09T21:36:21.567Z,100283.56
2023-01-09T21:38:48.436Z,100293.81
2023-01-09T21:41:36.628Z,100298.06
2023-01-09T21:44:21.473Z,100297.91
2023-01-09T21:46:57.489Z,100315.25
2023-01-09T21:49:26.477Z,100318.84
2023-01-09T21:51:54.014Z,100319.97
2023-01-09T21:54:24.209Z,100327.84
2023-01-09T21:56:51.495Z,100327.75
2023-01-09T21:59:18.153Z,100335.66
2023-01-09T22:01:45.250Z,100338.28
2023-01-09T22:04:14.357Z,100340.00
2023-01-09T22:06:40.743Z,100351.03
2023-01-09T22:09:09.794Z,100348.22
2023-01-09T22:11:37.570Z,100357.69
2023-01-09T22:14:04.213Z,100370.66
2023-01-09T22:16:30.796Z,100366.34
2023-01-09T22:18:57.773Z,100364.63
2023-01-09T22:21:25.579Z,100361.22
2023-01-09T22:23:52.213Z,100363.94
2023-01-09T22:26:18.952Z,100362.22
2023-01-09T22:28:46.367Z,100376.84
2023-01-09T22:31:20.416Z,100384.72
2023-01-09T22:33:51.757Z,100385.47
2023-01-09T22:36:18.925Z,100397.84
2023-01-09T22:38:45.672Z,100398.81
2023-01-09T22:41:12.530Z,100404.78
2023-01-09T22:43:38.968Z,100409.78
2023-01-09T22:46:09.721Z,100409.69
2023-01-09T22:48:37.711Z,100417.03
2023-01-09T22:51:16.296Z,100430.16
2023-01-09T22:53:43.312Z,100429.13
2023-01-09T22:56:12.547Z,100435.13
2023-01-09T22:58:39.407Z,100441.19
2023-01-09T23:01:06.220Z,100441.97
2023-01-09T23:03:32.943Z,100443.69
2023-01-09T23:06:04.752Z,100443.72
2023-01-09T23:08:32.067Z,100452.44
2023-01-09T23:10:58.896Z,100453.28
2023-01-09T23:13:25.449Z,100453.31
2023-01-09T23:15:52.076Z,100455.88
2023-01-09T23:18:18.792Z,100462.94
2023-01-09T23:20:57.189Z,100469.00
2023-01-09T23:23:24.836Z,100471.56
2023-01-09T23:25:53.343Z,100477.66
2023-01-09T23:28:20.314Z,100481.16
2023-01-09T23:30:47.364Z,100482.78
2023-01-09T23:33:16.508Z,100487.91
2023-01-09T23:35:44.019Z,100496.63
2023-01-09T23:38:13.992Z,100498.59
2023-01-09T23:40:41.587Z,100503.06
2023-01-09T23:43:11.198Z,100517.13
2023-01-09T23:45:43.158Z,100514.53
2023-01-09T23:48:12.658Z,100526.66
2023-01-09T23:50:42.149Z,100524.22
2023-01-09T23:53:09.474Z,100526.97
2023-01-09T23:55:36.731Z,100527.84
2023-01-09T23:58:03.131Z,100525.22
